sensor_id;sensor_type;location;lat;lon;timestamp;temperature;humidity
22145;DHT22;11238;48.730;11.566;2023-03-20T00:01:23;8.30;99.90
22145;DHT22;11238;48.730;11.566;2023-03-20T00:03:51;8.20;99.90
22145;DHT22;11238;48.730;11.566;2023-03-20T00:06:19;7.90;99.90
22145;DHT22;11238;48.730;11.566;2023-03-20T00:08:46;7.90;99.90
22145;DHT22;11238;48.730;11.566;2023-03-20T00:11:26;7.80;99.90
22145;DHT22;11238;48.730;11.566;2023-03-20T00:16:29;7.90;99.90
22145;DHT22;11238;48.730;11.566;2023-03-20T00:18:56;7.80;99.90
22145;DHT22;11238;48.730;11.566;2023-03-20T00:21:24;7.90;99.90
22145;DHT22;11238;48.730;11.566;2023-03-20T00:23:50;7.90;99.90
22145;DHT22;11238;48.730;11.566;2023-03-20T00:26:17;7.90;99.90
22145;DHT22;11238;48.730;11.566;2023-03-20T00:28:46;7.90;99.90
22145;DHT22;11238;48.730;11.566;2023-03-20T00:31:24;8.00;99.90
22145;DHT22;11238;48.730;11.566;2023-03-20T00:34:00;7.90;99.90
22145;DHT22;11238;48.730;11.566;2023-03-20T00:36:26;7.90;99.90
22145;DHT22;11238;48.730;11.566;2023-03-20T00:38:52;7.90;99.90
22145;DHT22;11238;48.730;11.566;2023-03-20T00:41:36;7.90;99.90
22145;DHT22;11238;48.730;11.566;2023-03-20T00:44:29;7.80;99.90
22145;DHT22;11238;48.730;11.566;2023-03-20T00:47:00;7.50;99.90
22145;DHT22;11238;48.730;11.566;2023-03-20T00:49:33;7.50;99.90
22145;DHT22;11238;48.730;11.566;2023-03-20T00:52:00;7.50;99.90
22145;DHT22;11238;48.730;11.566;2023-03-20T00:54:27;7.60;99.90
22145;DHT22;11238;48.730;11.566;2023-03-20T00:57:08;7.60;99.90
22145;DHT22;11238;48.730;11.566;2023-03-20T00:59:40;7.50;99.90
22145;DHT22;11238;48.730;11.566;2023-03-20T01:02:07;7.50;99.90
22145;DHT22;11238;48.730;11.566;2023-03-20T01:04:37;7.50;99.90
22145;DHT22;11238;48.730;11.566;2023-03-20T01:07:04;7.50;99.90
22145;DHT22;11238;48.730;11.566;2023-03-20T01:09:31;7.40;99.90
22145;DHT22;11238;48.730;11.566;2023-03-20T01:12:01;7.30;99.90
22145;DHT22;11238;48.730;11.566;2023-03-20T01:14:27;7.20;99.90
22145;DHT22;11238;48.730;11.566;2023-03-20T01:16:53;7.20;99.90
22145;DHT22;11238;48.730;11.566;2023-03-20T01:19:19;7.30;99.90
22145;DHT22;11238;48.730;11.566;2023-03-20T01:21:45;7.20;99.90
22145;DHT22;11238;48.730;11.566;2023-03-20T01:24:12;7.30;99.90
22145;DHT22;11238;48.730;11.566;2023-03-20T01:26:40;7.30;99.90
22145;DHT22;11238;48.730;11.566;2023-03-20T01:29:25;7.20;99.90
22145;DHT22;11238;48.730;11.566;2023-03-20T01:31:53;7.20;99.90
22145;DHT22;11238;48.730;11.566;2023-03-20T01:34:22;7.20;99.90
22145;DHT22;11238;48.730;11.566;2023-03-20T01:36:53;7.20;99.90
22145;DHT22;11238;48.730;11.566;2023-03-20T01:39:22;7.30;99.90
22145;DHT22;11238;48.730;11.566;2023-03-20T01:41:53;7.20;99.90
22145;DHT22;11238;48.730;11.566;2023-03-20T01:44:27;7.20;99.90
22145;DHT22;11238;48.730;11.566;2023-03-20T01:46:56;7.30;99.90
22145;DHT22;11238;48.730;11.566;2023-03-20T01:51:51;7.30;99.90
22145;DHT22;11238;48.730;11.566;2023-03-20T01:54:27;7.30;99.90
22145;DHT22;11238;48.730;11.566;2023-03-20T01:57:08;7.40;99.90
22145;DHT22;11238;48.730;11.566;2023-03-20T01:59:44;7.30;99.90
22145;DHT22;11238;48.730;11.566;2023-03-20T02:05:39;7.40;99.90
22145;DHT22;11238;48.730;11.566;2023-03-20T02:08:11;7.50;99.90
22145;DHT22;11238;48.730;11.566;2023-03-20T02:10:39;7.50;99.90
22145;DHT22;11238;48.730;11.566;2023-03-20T02:13:18;7.50;99.90
22145;DHT22;11238;48.730;11.566;2023-03-20T02:16:05;7.50;99.90
22145;DHT22;11238;48.730;11.566;2023-03-20T02:18:51;7.50;99.90
22145;DHT22;11238;48.730;11.566;2023-03-20T02:24:36;7.60;99.90
22145;DHT22;11238;48.730;11.566;2023-03-20T02:30:25;7.40;99.90
22145;DHT22;11238;48.730;11.566;2023-03-20T02:38:54;7.40;99.90
22145;DHT22;11238;48.730;11.566;2023-03-20T02:41:46;7.50;99.90
22145;DHT22;11238;48.730;11.566;2023-03-20T02:44:25;7.50;99.90
22145;DHT22;11238;48.730;11.566;2023-03-20T02:47:07;7.40;99.90
22145;DHT22;11238;48.730;11.566;2023-03-20T02:49:55;7.30;99.90
22145;DHT22;11238;48.730;11.566;2023-03-20T02:52:41;7.30;99.90
22145;DHT22;11238;48.730;11.566;2023-03-20T02:55:16;7.40;99.90
22145;DHT22;11238;48.730;11.566;2023-03-20T03:00:39;7.40;99.90
22145;DHT22;11238;48.730;11.566;2023-03-20T03:03:32;7.40;99.90
22145;DHT22;11238;48.730;11.566;2023-03-20T03:06:11;7.50;99.90
22145;DHT22;11238;48.730;11.566;2023-03-20T03:08:44;7.50;99.90
22145;DHT22;11238;48.730;11.566;2023-03-20T03:11:12;7.50;99.90
22145;DHT22;11238;48.730;11.566;2023-03-20T03:13:47;7.40;99.90
22145;DHT22;11238;48.730;11.566;2023-03-20T03:16:20;7.30;99.90
22145;DHT22;11238;48.730;11.566;2023-03-20T03:18:49;7.30;99.90
22145;DHT22;11238;48.730;11.566;2023-03-20T03:21:17;7.20;99.90
22145;DHT22;11238;48.730;11.566;2023-03-20T03:23:48;7.30;99.90
22145;DHT22;11238;48.730;11.566;2023-03-20T03:26:23;7.30;99.90
22145;DHT22;11238;48.730;11.566;2023-03-20T03:28:59;7.30;99.90
22145;DHT22;11238;48.730;11.566;2023-03-20T03:31:27;7.30;99.90
22145;DHT22;11238;48.730;11.566;2023-03-20T03:33:56;7.30;99.90
22145;DHT22;11238;48.730;11.566;2023-03-20T03:36:41;7.30;99.90
22145;DHT22;11238;48.730;11.566;2023-03-20T03:42:29;7.30;99.90
22145;DHT22;11238;48.730;11.566;2023-03-20T03:47:40;7.40;99.90
22145;DHT22;11238;48.730;11.566;2023-03-20T03:50:16;7.40;99.90
22145;DHT22;11238;48.730;11.566;2023-03-20T03:52:44;7.40;99.90
22145;DHT22;11238;48.730;11.566;2023-03-20T03:55:14;7.50;99.90
22145;DHT22;11238;48.730;11.566;2023-03-20T03:58:09;7.50;99.90
22145;DHT22;11238;48.730;11.566;2023-03-20T04:00:36;7.60;99.90
22145;DHT22;11238;48.730;11.566;2023-03-20T04:03:06;7.60;99.90
22145;DHT22;11238;48.730;11.566;2023-03-20T04:05:35;7.60;99.90
22145;DHT22;11238;48.730;11.566;2023-03-20T04:08:04;7.60;99.90
22145;DHT22;11238;48.730;11.566;2023-03-20T04:10:30;7.60;99.90
22145;DHT22;11238;48.730;11.566;2023-03-20T04:12:57;7.60;99.90
22145;DHT22;11238;48.730;11.566;2023-03-20T04:15:23;7.70;99.90
22145;DHT22;11238;48.730;11.566;2023-03-20T04:17:48;7.70;99.90
22145;DHT22;11238;48.730;11.566;2023-03-20T04:20:15;7.80;99.90
22145;DHT22;11238;48.730;11.566;2023-03-20T04:22:42;7.70;99.90
22145;DHT22;11238;48.730;11.566;2023-03-20T04:25:17;7.70;99.90
22145;DHT22;11238;48.730;11.566;2023-03-20T04:27:44;7.80;99.90
22145;DHT22;11238;48.730;11.566;2023-03-20T04:30:22;7.80;99.90
22145;DHT22;11238;48.730;11.566;2023-03-20T04:33:07;7.80;99.90
22145;DHT22;11238;48.730;11.566;2023-03-20T04:35:42;7.80;99.90
22145;DHT22;11238;48.730;11.566;2023-03-20T04:38:13;7.80;99.90
22145;DHT22;11238;48.730;11.566;2023-03-20T04:40:39;7.80;99.90
22145;DHT22;11238;48.730;11.566;2023-03-20T04:43:07;7.80;99.90
22145;DHT22;11238;48.730;11.566;2023-03-20T04:45:32;7.80;99.90
22145;DHT22;11238;48.730;11.566;2023-03-20T04:47:59;7.80;99.90
22145;DHT22;11238;48.730;11.566;2023-03-20T04:50:25;7.70;99.90
22145;DHT22;11238;48.730;11.566;2023-03-20T04:52:52;7.80;99.90
22145;DHT22;11238;48.730;11.566;2023-03-20T04:55:19;7.80;99.90
22145;DHT22;11238;48.730;11.566;2023-03-20T04:57:45;7.80;99.90
22145;DHT22;11238;48.730;11.566;2023-03-20T05:00:12;7.70;99.90
22145;DHT22;11238;48.730;11.566;2023-03-20T05:02:38;7.60;99.90
22145;DHT22;11238;48.730;11.566;2023-03-20T05:05:04;7.50;99.90
22145;DHT22;11238;48.730;11.566;2023-03-20T05:07:34;7.50;99.90
22145;DHT22;11238;48.730;11.566;2023-03-20T05:10:05;7.60;99.90
22145;DHT22;11238;48.730;11.566;2023-03-20T05:12:37;7.60;99.90
22145;DHT22;11238;48.730;11.566;2023-03-20T05:15:06;7.60;99.90
22145;DHT22;11238;48.730;11.566;2023-03-20T05:18:07;7.60;99.90
22145;DHT22;11238;48.730;11.566;2023-03-20T05:20:50;7.70;99.90
22145;DHT22;11238;48.730;11.566;2023-03-20T05:23:51;7.70;99.90
22145;DHT22;11238;48.730;11.566;2023-03-20T05:26:45;7.70;99.90
22145;DHT22;11238;48.730;11.566;2023-03-20T05:29:25;7.80;99.90
22145;DHT22;11238;48.730;11.566;2023-03-20T05:32:18;7.80;99.90
22145;DHT22;11238;48.730;11.566;2023-03-20T05:35:13;7.90;99.90
22145;DHT22;11238;48.730;11.566;2023-03-20T05:37:47;8.00;99.90
22145;DHT22;11238;48.730;11.566;2023-03-20T05:40:39;7.90;99.90
22145;DHT22;11238;48.730;11.566;2023-03-20T05:43:12;8.00;99.90
22145;DHT22;11238;48.730;11.566;2023-03-20T05:46:00;8.00;99.90
22145;DHT22;11238;48.730;11.566;2023-03-20T05:48:45;8.00;99.90
22145;DHT22;11238;48.730;11.566;2023-03-20T05:51:21;8.00;99.90
22145;DHT22;11238;48.730;11.566;2023-03-20T05:54:13;8.00;99.90
22145;DHT22;11238;48.730;11.566;2023-03-20T05:57:02;8.00;99.90
22145;DHT22;11238;48.730;11.566;2023-03-20T06:00:03;8.10;99.90
22145;DHT22;11238;48.730;11.566;2023-03-20T06:02:39;8.20;99.90
22145;DHT22;11238;48.730;11.566;2023-03-20T06:05:25;8.20;99.90
22145;DHT22;11238;48.730;11.566;2023-03-20T06:07:51;8.30;99.90
22145;DHT22;11238;48.730;11.566;2023-03-20T06:10:18;8.30;99.90
22145;DHT22;11238;48.730;11.566;2023-03-20T06:12:46;8.30;99.90
22145;DHT22;11238;48.730;11.566;2023-03-20T06:15:13;8.40;99.90
22145;DHT22;11238;48.730;11.566;2023-03-20T06:17:45;8.40;99.90
22145;DHT22;11238;48.730;11.566;2023-03-20T06:20:13;8.40;99.90
22145;DHT22;11238;48.730;11.566;2023-03-20T06:22:39;8.40;99.90
22145;DHT22;11238;48.730;11.566;2023-03-20T06:25:05;8.40;99.90
22145;DHT22;11238;48.730;11.566;2023-03-20T06:27:40;8.40;99.90
22145;DHT22;11238;48.730;11.566;2023-03-20T06:30:07;8.40;99.90
22145;DHT22;11238;48.730;11.566;2023-03-20T06:32:57;8.50;99.90
22145;DHT22;11238;48.730;11.566;2023-03-20T06:35:32;8.50;99.90
22145;DHT22;11238;48.730;11.566;2023-03-20T06:37:59;8.50;99.90
22145;DHT22;11238;48.730;11.566;2023-03-20T06:40:26;8.50;99.90
22145;DHT22;11238;48.730;11.566;2023-03-20T06:42:53;8.50;99.90
22145;DHT22;11238;48.730;11.566;2023-03-20T06:45:21;8.60;99.90
22145;DHT22;11238;48.730;11.566;2023-03-20T06:47:53;8.60;99.90
22145;DHT22;11238;48.730;11.566;2023-03-20T06:50:21;8.60;99.90
22145;DHT22;11238;48.730;11.566;2023-03-20T06:52:47;8.60;99.90
22145;DHT22;11238;48.730;11.566;2023-03-20T06:55:29;8.60;99.90
22145;DHT22;11238;48.730;11.566;2023-03-20T06:57:55;8.60;99.90
22145;DHT22;11238;48.730;11.566;2023-03-20T07:00:21;8.60;99.90
22145;DHT22;11238;48.730;11.566;2023-03-20T07:02:47;8.60;99.90
22145;DHT22;11238;48.730;11.566;2023-03-20T07:05:15;8.60;99.90
22145;DHT22;11238;48.730;11.566;2023-03-20T07:07:42;8.60;99.90
22145;DHT22;11238;48.730;11.566;2023-03-20T07:10:09;8.70;99.90
22145;DHT22;11238;48.730;11.566;2023-03-20T07:12:35;8.70;99.90
22145;DHT22;11238;48.730;11.566;2023-03-20T07:15:03;8.80;99.90
22145;DHT22;11238;48.730;11.566;2023-03-20T07:17:29;8.90;99.90
22145;DHT22;11238;48.730;11.566;2023-03-20T07:19:57;9.10;99.90
22145;DHT22;11238;48.730;11.566;2023-03-20T07:22:25;9.30;99.90
22145;DHT22;11238;48.730;11.566;2023-03-20T07:25:08;9.30;99.90
22145;DHT22;11238;48.730;11.566;2023-03-20T07:27:34;9.30;99.90
22145;DHT22;11238;48.730;11.566;2023-03-20T07:30:01;9.30;99.90
22145;DHT22;11238;48.730;11.566;2023-03-20T07:32:49;9.40;99.90
22145;DHT22;11238;48.730;11.566;2023-03-20T07:35:15;9.30;99.90
22145;DHT22;11238;48.730;11.566;2023-03-20T07:37:43;9.30;99.90
22145;DHT22;11238;48.730;11.566;2023-03-20T07:40:10;9.30;99.90
22145;DHT22;11238;48.730;11.566;2023-03-20T07:42:48;9.30;99.90
22145;DHT22;11238;48.730;11.566;2023-03-20T07:45:35;9.20;99.90
22145;DHT22;11238;48.730;11.566;2023-03-20T07:48:23;9.30;99.90
22145;DHT22;11238;48.730;11.566;2023-03-20T07:50:49;9.40;99.90
22145;DHT22;11238;48.730;11.566;2023-03-20T07:53:18;9.40;99.90
22145;DHT22;11238;48.730;11.566;2023-03-20T07:55:47;9.40;99.90
22145;DHT22;11238;48.730;11.566;2023-03-20T07:58:12;9.40;99.90
22145;DHT22;11238;48.730;11.566;2023-03-20T08:00:39;9.40;99.90
22145;DHT22;11238;48.730;11.566;2023-03-20T08:03:04;9.30;99.90
22145;DHT22;11238;48.730;11.566;2023-03-20T08:05:52;9.40;99.90
22145;DHT22;11238;48.730;11.566;2023-03-20T08:08:19;9.40;99.90
22145;DHT22;11238;48.730;11.566;2023-03-20T08:10:47;9.60;99.90
22145;DHT22;11238;48.730;11.566;2023-03-20T08:13:13;9.70;99.90
22145;DHT22;11238;48.730;11.566;2023-03-20T08:15:42;9.80;99.90
22145;DHT22;11238;48.730;11.566;2023-03-20T08:18:09;9.90;99.90
22145;DHT22;11238;48.730;11.566;2023-03-20T08:20:35;10.00;99.90
22145;DHT22;11238;48.730;11.566;2023-03-20T08:23:01;10.00;99.90
22145;DHT22;11238;48.730;11.566;2023-03-20T08:25:27;10.00;99.90
22145;DHT22;11238;48.730;11.566;2023-03-20T08:27:59;10.10;99.90
22145;DHT22;11238;48.730;11.566;2023-03-20T08:30:25;10.00;99.90
22145;DHT22;11238;48.730;11.566;2023-03-20T08:32:52;9.90;99.90
22145;DHT22;11238;48.730;11.566;2023-03-20T08:35:18;9.90;99.90
22145;DHT22;11238;48.730;11.566;2023-03-20T08:37:44;9.90;99.90
22145;DHT22;11238;48.730;11.566;2023-03-20T08:40:10;9.90;99.90
22145;DHT22;11238;48.730;11.566;2023-03-20T08:42:38;10.00;99.90
22145;DHT22;11238;48.730;11.566;2023-03-20T08:45:27;10.10;99.90
22145;DHT22;11238;48.730;11.566;2023-03-20T08:47:54;10.20;99.90
22145;DHT22;11238;48.730;11.566;2023-03-20T08:50:21;10.30;99.90
22145;DHT22;11238;48.730;11.566;2023-03-20T08:52:47;10.40;99.90
22145;DHT22;11238;48.730;11.566;2023-03-20T08:55:14;10.50;99.90
22145;DHT22;11238;48.730;11.566;2023-03-20T08:57:41;10.70;99.90
22145;DHT22;11238;48.730;11.566;2023-03-20T09:00:10;10.90;99.90
22145;DHT22;11238;48.730;11.566;2023-03-20T09:02:38;11.20;99.90
22145;DHT22;11238;48.730;11.566;2023-03-20T09:05:04;11.50;99.90
22145;DHT22;11238;48.730;11.566;2023-03-20T09:07:32;11.60;99.90
22145;DHT22;11238;48.730;11.566;2023-03-20T09:09:58;11.80;99.90
22145;DHT22;11238;48.730;11.566;2023-03-20T09:12:23;11.50;99.90
22145;DHT22;11238;48.730;11.566;2023-03-20T09:14:49;11.60;99.90
22145;DHT22;11238;48.730;11.566;2023-03-20T09:17:15;11.50;99.90
22145;DHT22;11238;48.730;11.566;2023-03-20T09:19:42;11.60;99.90
22145;DHT22;11238;48.730;11.566;2023-03-20T09:22:14;11.80;99.90
22145;DHT22;11238;48.730;11.566;2023-03-20T09:24:44;11.80;99.90
22145;DHT22;11238;48.730;11.566;2023-03-20T09:27:32;11.90;99.90
22145;DHT22;11238;48.730;11.566;2023-03-20T09:29:58;12.00;99.90
22145;DHT22;11238;48.730;11.566;2023-03-20T09:32:23;12.00;99.90
22145;DHT22;11238;48.730;11.566;2023-03-20T09:34:50;12.10;99.90
22145;DHT22;11238;48.730;11.566;2023-03-20T09:37:17;12.10;99.90
22145;DHT22;11238;48.730;11.566;2023-03-20T09:39:46;12.20;99.90
22145;DHT22;11238;48.730;11.566;2023-03-20T09:42:24;12.20;99.90
22145;DHT22;11238;48.730;11.566;2023-03-20T09:45:06;12.10;99.90
22145;DHT22;11238;48.730;11.566;2023-03-20T09:48:12;12.00;99.90
22145;DHT22;11238;48.730;11.566;2023-03-20T09:50:48;11.80;99.90
22145;DHT22;11238;48.730;11.566;2023-03-20T09:53:39;12.10;99.90
22145;DHT22;11238;48.730;11.566;2023-03-20T09:56:14;12.30;99.90
22145;DHT22;11238;48.730;11.566;2023-03-20T09:58:56;12.50;99.90
22145;DHT22;11238;48.730;11.566;2023-03-20T10:01:32;12.70;99.90
22145;DHT22;11238;48.730;11.566;2023-03-20T10:04:07;12.90;99.90
22145;DHT22;11238;48.730;11.566;2023-03-20T10:06:34;13.00;99.90
22145;DHT22;11238;48.730;11.566;2023-03-20T10:09:03;12.90;99.90
22145;DHT22;11238;48.730;11.566;2023-03-20T10:14:32;12.80;99.90
22145;DHT22;11238;48.730;11.566;2023-03-20T10:20:18;12.60;99.90
22145;DHT22;11238;48.730;11.566;2023-03-20T10:22:54;12.40;99.90
22145;DHT22;11238;48.730;11.566;2023-03-20T10:25:31;12.20;99.90
22145;DHT22;11238;48.730;11.566;2023-03-20T10:28:01;12.20;99.90
22145;DHT22;11238;48.730;11.566;2023-03-20T10:39:39;12.00;99.90
22145;DHT22;11238;48.730;11.566;2023-03-20T10:42:17;12.20;99.90
22145;DHT22;11238;48.730;11.566;2023-03-20T10:44:55;12.10;99.90
22145;DHT22;11238;48.730;11.566;2023-03-20T10:47:26;12.40;99.90
22145;DHT22;11238;48.730;11.566;2023-03-20T10:50:00;12.50;99.90
22145;DHT22;11238;48.730;11.566;2023-03-20T10:52:32;12.50;99.90
22145;DHT22;11238;48.730;11.566;2023-03-20T10:55:06;12.50;99.90
22145;DHT22;11238;48.730;11.566;2023-03-20T10:57:39;12.20;99.90
22145;DHT22;11238;48.730;11.566;2023-03-20T11:00:27;12.20;99.90
22145;DHT22;11238;48.730;11.566;2023-03-20T11:02:53;12.30;99.90
22145;DHT22;11238;48.730;11.566;2023-03-20T11:07:58;12.20;99.90
22145;DHT22;11238;48.730;11.566;2023-03-20T11:10:26;12.50;99.90
22145;DHT22;11238;48.730;11.566;2023-03-20T11:12:52;12.90;99.90
22145;DHT22;11238;48.730;11.566;2023-03-20T11:15:33;13.20;99.90
22145;DHT22;11238;48.730;11.566;2023-03-20T11:18:19;13.40;99.90
22145;DHT22;11238;48.730;11.566;2023-03-20T11:20:55;13.50;99.90
22145;DHT22;11238;48.730;11.566;2023-03-20T11:23:31;13.50;99.90
22145;DHT22;11238;48.730;11.566;2023-03-20T11:26:02;13.20;99.90
22145;DHT22;11238;48.730;11.566;2023-03-20T11:34:20;13.00;99.90
22145;DHT22;11238;48.730;11.566;2023-03-20T11:36:59;13.10;99.90
22145;DHT22;11238;48.730;11.566;2023-03-20T11:39:28;13.00;99.90
22145;DHT22;11238;48.730;11.566;2023-03-20T11:42:00;13.10;99.90
22145;DHT22;11238;48.730;11.566;2023-03-20T11:44:29;13.00;99.90
22145;DHT22;11238;48.730;11.566;2023-03-20T11:47:00;12.80;99.90
22145;DHT22;11238;48.730;11.566;2023-03-20T11:49:33;12.80;99.90
22145;DHT22;11238;48.730;11.566;2023-03-20T11:52:15;12.60;99.90
22145;DHT22;11238;48.730;11.566;2023-03-20T11:54:50;12.70;99.90
22145;DHT22;11238;48.730;11.566;2023-03-20T11:57:36;12.70;99.90
22145;DHT22;11238;48.730;11.566;2023-03-20T12:00:24;12.60;99.90
22145;DHT22;11238;48.730;11.566;2023-03-20T12:02:54;12.60;99.90
22145;DHT22;11238;48.730;11.566;2023-03-20T12:05:35;12.60;99.90
22145;DHT22;11238;48.730;11.566;2023-03-20T12:08:08;12.60;99.90
22145;DHT22;11238;48.730;11.566;2023-03-20T12:10:41;12.70;99.90
22145;DHT22;11238;48.730;11.566;2023-03-20T12:13:18;12.70;99.90
22145;DHT22;11238;48.730;11.566;2023-03-20T12:15:48;12.60;99.90
22145;DHT22;11238;48.730;11.566;2023-03-20T12:18:34;12.60;98.90
22145;DHT22;11238;48.730;11.566;2023-03-20T12:23:58;12.50;98.60
22145;DHT22;11238;48.730;11.566;2023-03-20T12:26:50;12.60;99.20
22145;DHT22;11238;48.730;11.566;2023-03-20T12:29:26;12.70;98.60
22145;DHT22;11238;48.730;11.566;2023-03-20T12:32:12;12.70;98.60
22145;DHT22;11238;48.730;11.566;2023-03-20T12:34:50;12.70;98.60
22145;DHT22;11238;48.730;11.566;2023-03-20T12:37:18;12.70;98.80
22145;DHT22;11238;48.730;11.566;2023-03-20T12:39:52;12.80;99.50
22145;DHT22;11238;48.730;11.566;2023-03-20T13:01:44;13.00;94.60
22145;DHT22;11238;48.730;11.566;2023-03-20T13:04:30;13.10;94.70
22145;DHT22;11238;48.730;11.566;2023-03-20T13:07:19;13.10;95.20
22145;DHT22;11238;48.730;11.566;2023-03-20T13:12:55;13.00;96.30
22145;DHT22;11238;48.730;11.566;2023-03-20T13:20:55;13.10;96.50
22145;DHT22;11238;48.730;11.566;2023-03-20T13:23:40;13.00;96.30
22145;DHT22;11238;48.730;11.566;2023-03-20T13:26:32;13.10;96.40
22145;DHT22;11238;48.730;11.566;2023-03-20T13:34:16;13.20;95.10
22145;DHT22;11238;48.730;11.566;2023-03-20T13:39:33;13.20;95.10
22145;DHT22;11238;48.730;11.566;2023-03-20T13:42:03;13.30;95.40
22145;DHT22;11238;48.730;11.566;2023-03-20T13:44:32;13.30;93.90
22145;DHT22;11238;48.730;11.566;2023-03-20T13:47:03;13.30;94.40
22145;DHT22;11238;48.730;11.566;2023-03-20T13:52:28;13.40;94.20
22145;DHT22;11238;48.730;11.566;2023-03-20T14:01:04;13.60;93.00
22145;DHT22;11238;48.730;11.566;2023-03-20T14:08:58;13.10;94.90
22145;DHT22;11238;48.730;11.566;2023-03-20T14:11:27;13.20;95.50
22145;DHT22;11238;48.730;11.566;2023-03-20T14:14:13;13.10;95.50
22145;DHT22;11238;48.730;11.566;2023-03-20T14:16:41;13.00;95.30
22145;DHT22;11238;48.730;11.566;2023-03-20T14:19:25;12.90;95.10
22145;DHT22;11238;48.730;11.566;2023-03-20T14:21:54;13.00;95.50
22145;DHT22;11238;48.730;11.566;2023-03-20T14:24:23;13.10;96.10
22145;DHT22;11238;48.730;11.566;2023-03-20T14:26:56;13.20;96.20
22145;DHT22;11238;48.730;11.566;2023-03-20T14:29:32;13.20;95.20
22145;DHT22;11238;48.730;11.566;2023-03-20T14:34:58;13.20;93.20
22145;DHT22;11238;48.730;11.566;2023-03-20T14:43:13;13.10;93.80
22145;DHT22;11238;48.730;11.566;2023-03-20T14:45:50;13.10;95.60
22145;DHT22;11238;48.730;11.566;2023-03-20T14:48:36;12.90;94.70
22145;DHT22;11238;48.730;11.566;2023-03-20T14:53:56;13.00;94.90
22145;DHT22;11238;48.730;11.566;2023-03-20T14:56:31;13.00;95.30
22145;DHT22;11238;48.730;11.566;2023-03-20T14:59:04;13.00;94.60
22145;DHT22;11238;48.730;11.566;2023-03-20T15:04:21;13.20;95.10
22145;DHT22;11238;48.730;11.566;2023-03-20T15:06:59;13.20;93.90
22145;DHT22;11238;48.730;11.566;2023-03-20T15:09:33;13.20;94.50
22145;DHT22;11238;48.730;11.566;2023-03-20T15:12:00;13.20;93.30
22145;DHT22;11238;48.730;11.566;2023-03-20T15:14:33;13.30;94.90
22145;DHT22;11238;48.730;11.566;2023-03-20T15:17:02;13.20;93.70
22145;DHT22;11238;48.730;11.566;2023-03-20T15:19:28;13.20;93.10
22145;DHT22;11238;48.730;11.566;2023-03-20T15:21:54;13.20;93.90
22145;DHT22;11238;48.730;11.566;2023-03-20T15:24:26;13.20;93.80
22145;DHT22;11238;48.730;11.566;2023-03-20T15:26:57;13.20;93.00
22145;DHT22;11238;48.730;11.566;2023-03-20T15:29:25;13.20;94.00
22145;DHT22;11238;48.730;11.566;2023-03-20T15:31:56;13.20;94.60
22145;DHT22;11238;48.730;11.566;2023-03-20T15:34:29;13.00;93.70
22145;DHT22;11238;48.730;11.566;2023-03-20T15:36:59;12.90;94.00
22145;DHT22;11238;48.730;11.566;2023-03-20T15:39:29;12.90;94.00
22145;DHT22;11238;48.730;11.566;2023-03-20T15:42:11;12.80;94.40
22145;DHT22;11238;48.730;11.566;2023-03-20T15:44:39;12.90;95.10
22145;DHT22;11238;48.730;11.566;2023-03-20T15:47:12;12.90;95.20
22145;DHT22;11238;48.730;11.566;2023-03-20T15:49:40;13.00;95.10
22145;DHT22;11238;48.730;11.566;2023-03-20T15:52:30;13.10;94.30
22145;DHT22;11238;48.730;11.566;2023-03-20T15:54:59;13.10;93.90
22145;DHT22;11238;48.730;11.566;2023-03-20T15:57:33;13.00;93.90
22145;DHT22;11238;48.730;11.566;2023-03-20T15:59:59;13.00;94.10
22145;DHT22;11238;48.730;11.566;2023-03-20T16:02:26;12.90;93.80
22145;DHT22;11238;48.730;11.566;2023-03-20T16:04:55;12.80;94.10
22145;DHT22;11238;48.730;11.566;2023-03-20T16:07:29;12.80;93.80
22145;DHT22;11238;48.730;11.566;2023-03-20T16:09:57;12.70;94.70
22145;DHT22;11238;48.730;11.566;2023-03-20T16:12:24;12.70;94.30
22145;DHT22;11238;48.730;11.566;2023-03-20T16:14:51;12.70;94.90
22145;DHT22;11238;48.730;11.566;2023-03-20T16:17:19;12.60;94.30
22145;DHT22;11238;48.730;11.566;2023-03-20T16:19:46;12.50;95.00
22145;DHT22;11238;48.730;11.566;2023-03-20T16:22:30;12.40;94.40
22145;DHT22;11238;48.730;11.566;2023-03-20T16:24:59;12.40;94.30
22145;DHT22;11238;48.730;11.566;2023-03-20T16:27:31;12.40;94.40
22145;DHT22;11238;48.730;11.566;2023-03-20T16:29:58;12.40;95.00
22145;DHT22;11238;48.730;11.566;2023-03-20T16:32:37;12.40;95.10
22145;DHT22;11238;48.730;11.566;2023-03-20T16:35:23;12.30;94.70
22145;DHT22;11238;48.730;11.566;2023-03-20T16:37:56;12.20;95.60
22145;DHT22;11238;48.730;11.566;2023-03-20T16:40:33;12.10;95.70
22145;DHT22;11238;48.730;11.566;2023-03-20T16:43:16;12.10;95.60
22145;DHT22;11238;48.730;11.566;2023-03-20T16:45:56;12.10;94.90
22145;DHT22;11238;48.730;11.566;2023-03-20T16:48:32;12.10;95.30
22145;DHT22;11238;48.730;11.566;2023-03-20T16:51:09;12.00;95.60
22145;DHT22;11238;48.730;11.566;2023-03-20T16:53:41;11.90;95.60
22145;DHT22;11238;48.730;11.566;2023-03-20T16:56:12;11.90;96.30
22145;DHT22;11238;48.730;11.566;2023-03-20T16:58:39;11.80;95.70
22145;DHT22;11238;48.730;11.566;2023-03-20T17:01:14;11.80;96.00
22145;DHT22;11238;48.730;11.566;2023-03-20T17:03:55;11.80;96.10
22145;DHT22;11238;48.730;11.566;2023-03-20T17:08:52;11.80;96.30
22145;DHT22;11238;48.730;11.566;2023-03-20T17:11:38;11.90;96.30
22145;DHT22;11238;48.730;11.566;2023-03-20T17:14:04;12.00;96.40
22145;DHT22;11238;48.730;11.566;2023-03-20T17:16:31;11.90;96.10
22145;DHT22;11238;48.730;11.566;2023-03-20T17:19:01;11.90;96.50
22145;DHT22;11238;48.730;11.566;2023-03-20T17:21:27;11.90;96.70
22145;DHT22;11238;48.730;11.566;2023-03-20T17:23:53;11.90;96.70
22145;DHT22;11238;48.730;11.566;2023-03-20T17:26:19;12.00;96.70
22145;DHT22;11238;48.730;11.566;2023-03-20T17:28:46;12.00;96.70
22145;DHT22;11238;48.730;11.566;2023-03-20T17:31:13;11.80;96.50
22145;DHT22;11238;48.730;11.566;2023-03-20T17:33:40;11.80;96.70
22145;DHT22;11238;48.730;11.566;2023-03-20T17:36:24;11.90;96.80
22145;DHT22;11238;48.730;11.566;2023-03-20T17:38:53;11.80;96.60
22145;DHT22;11238;48.730;11.566;2023-03-20T17:41:19;11.70;96.80
22145;DHT22;11238;48.730;11.566;2023-03-20T17:43:46;11.60;97.20
22145;DHT22;11238;48.730;11.566;2023-03-20T17:46:29;11.40;98.10
22145;DHT22;11238;48.730;11.566;2023-03-20T17:49:00;11.30;99.20
22145;DHT22;11238;48.730;11.566;2023-03-20T17:51:26;11.40;98.60
22145;DHT22;11238;48.730;11.566;2023-03-20T17:53:53;11.30;99.30
22145;DHT22;11238;48.730;11.566;2023-03-20T17:56:21;11.30;99.50
22145;DHT22;11238;48.730;11.566;2023-03-20T17:58:47;11.40;99.90
22145;DHT22;11238;48.730;11.566;2023-03-20T18:01:13;11.50;99.70